createdAt,value
2022-10-12T00:02:24.576Z,12.35
2022-10-12T00:04:51.333Z,11.93
2022-10-12T00:07:18.720Z,11.65
2022-10-12T00:09:45.460Z,10.17
2022-10-12T00:12:12.323Z,9.88
2022-10-12T00:14:39.137Z,13.32
2022-10-12T00:17:05.880Z,10.45
2022-10-12T00:19:32.625Z,11.40
2022-10-12T00:21:59.366Z,10.70
2022-10-12T00:24:26.089Z,11.13
2022-10-12T00:26:52.916Z,9.93
2022-10-12T00:29:22.155Z,12.57
2022-10-12T00:31:48.895Z,10.15
2022-10-12T00:34:15.951Z,11.50
2022-10-12T00:36:43.300Z,13.02
2022-10-12T00:39:11.017Z,10.40
2022-10-12T00:41:42.502Z,10.57
2022-10-12T00:44:39.340Z,10.20
2022-10-12T00:47:23.928Z,11.00
2022-10-12T00:50:10.903Z,13.35
2022-10-12T00:53:16.683Z,9.15
2022-10-12T00:55:54.941Z,8.70
2022-10-12T00:58:22.839Z,10.07
2022-10-12T01:00:50.219Z,9.68
2022-10-12T01:03:22.996Z,9.90
2022-10-12T01:05:49.810Z,10.90
2022-10-12T01:08:16.579Z,8.75
2022-10-12T01:10:43.354Z,8.35
2022-10-12T01:13:10.245Z,9.85
2022-10-12T01:15:43.569Z,10.20
2022-10-12T01:18:19.090Z,9.98
2022-10-12T01:20:52.559Z,9.30
2022-10-12T01:23:31.150Z,10.18
2022-10-12T01:26:22.561Z,9.40
2022-10-12T01:29:05.717Z,10.27
2022-10-12T01:31:46.883Z,7.28
2022-10-12T01:34:16.383Z,9.20
2022-10-12T01:36:48.965Z,10.07
2022-10-12T01:39:34.587Z,8.20
2022-10-12T01:42:06.789Z,9.60
2022-10-12T01:44:35.536Z,8.93
2022-10-12T01:47:04.808Z,8.77
2022-10-12T01:49:34.624Z,8.35
2022-10-12T01:52:19.902Z,7.47
2022-10-12T01:55:04.681Z,7.45
2022-10-12T01:57:51.143Z,10.05
2022-10-12T02:00:18.697Z,10.38
2022-10-12T02:02:51.227Z,10.75
2022-10-12T02:05:26.908Z,8.77
2022-10-12T02:08:02.052Z,10.68
2022-10-12T02:10:35.385Z,9.50
2022-10-12T02:13:06.257Z,9.23
2022-10-12T02:15:34.471Z,9.70
2022-10-12T02:18:04.501Z,8.38
2022-10-12T02:20:32.927Z,8.07
2022-10-12T02:23:03.045Z,10.07
2022-10-12T02:25:33.307Z,9.85
2022-10-12T02:28:06.205Z,10.45
2022-10-12T02:30:48.322Z,9.45
2022-10-12T02:33:29.102Z,8.82
2022-10-12T02:36:07.111Z,10.15
2022-10-12T02:38:43.295Z,10.48
2022-10-12T02:41:16.597Z,9.30
2022-10-12T02:43:56.445Z,9.00
2022-10-12T02:46:25.812Z,7.25
2022-10-12T02:48:54.500Z,9.07
2022-10-12T02:51:22.041Z,11.15
2022-10-12T02:53:49.400Z,9.68
2022-10-12T02:56:16.623Z,8.20
2022-10-12T02:58:45.778Z,8.82
2022-10-12T03:01:13.794Z,8.60
2022-10-12T03:03:41.035Z,9.52
2022-10-12T03:06:08.024Z,8.80
2022-10-12T03:08:35.154Z,7.47
2022-10-12T03:11:03.668Z,7.72
2022-10-12T03:13:30.573Z,10.85
2022-10-12T03:16:05.251Z,6.55
2022-10-12T03:18:32.565Z,9.10
2022-10-12T03:20:59.292Z,8.90
2022-10-12T03:23:26.640Z,9.88
2022-10-12T03:25:53.531Z,8.95
2022-10-12T03:28:20.384Z,9.65
2022-10-12T03:30:47.236Z,7.57
2022-10-12T03:33:13.970Z,7.38
2022-10-12T03:35:43.367Z,7.07
2022-10-12T03:38:10.124Z,6.82
2022-10-12T03:40:38.306Z,7.57
2022-10-12T03:43:05.072Z,6.32
2022-10-12T03:45:31.789Z,7.63
2022-10-12T03:48:03.726Z,6.20
2022-10-12T03:50:34.733Z,7.22
2022-10-12T03:53:03.375Z,7.60
2022-10-12T03:55:30.460Z,7.70
2022-10-12T03:57:57.226Z,8.20
2022-10-12T04:00:25.363Z,8.32
2022-10-12T04:02:52.089Z,8.13
2022-10-12T04:05:18.897Z,8.13
2022-10-12T04:07:45.686Z,8.90
2022-10-12T04:10:12.641Z,7.07
2022-10-12T04:12:39.380Z,9.07
2022-10-12T04:15:06.661Z,9.65
2022-10-12T04:17:33.436Z,6.40
2022-10-12T04:20:00.186Z,8.38
2022-10-12T04:22:26.932Z,7.20
2022-10-12T04:24:53.659Z,8.23
2022-10-12T04:27:20.547Z,11.48
2022-10-12T04:29:47.371Z,11.48
2022-10-12T04:32:14.157Z,9.27
2022-10-12T04:34:40.906Z,8.60
2022-10-12T04:37:07.692Z,8.35
2022-10-12T04:39:35.019Z,7.15
2022-10-12T04:42:02.376Z,7.38
2022-10-12T04:44:32.208Z,7.90
2022-10-12T04:47:00.049Z,7.82
2022-10-12T04:49:29.081Z,8.45
2022-10-12T04:51:55.887Z,8.65
2022-10-12T04:54:22.601Z,8.95
2022-10-12T04:56:49.358Z,8.55
2022-10-12T04:59:16.096Z,8.13
2022-10-12T05:01:43.151Z,8.05
2022-10-12T05:04:10.010Z,15.77
2022-10-12T05:06:36.741Z,26.35
2022-10-12T05:09:03.713Z,19.23
2022-10-12T05:11:30.431Z,56.53
2022-10-12T05:13:57.149Z,321.80
2022-10-12T05:16:24.158Z,76.07
2022-10-12T05:18:50.907Z,1999.90
2022-10-12T05:21:17.921Z,101.80
2022-10-12T05:23:45.195Z,547.30
2022-10-12T05:26:11.913Z,1999.90
2022-10-12T05:28:41.291Z,617.70
2022-10-12T05:31:08.546Z,451.38
2022-10-12T05:33:35.254Z,438.20
2022-10-12T05:36:02.003Z,1443.32
2022-10-12T05:38:28.771Z,804.58
2022-10-12T05:41:00.348Z,1499.93
2022-10-12T05:43:28.211Z,595.08
2022-10-12T05:45:55.049Z,243.90
2022-10-12T05:48:21.847Z,350.40
2022-10-12T05:50:48.716Z,155.57
2022-10-12T05:53:15.472Z,1995.78
2022-10-12T05:55:55.713Z,1937.53
2022-10-12T05:58:23.377Z,1327.63
2022-10-12T06:00:50.199Z,1642.20
2022-10-12T06:03:18.755Z,807.30
2022-10-12T06:05:46.969Z,575.13
2022-10-12T06:08:14.255Z,1137.10
2022-10-12T06:10:46.940Z,1390.43
2022-10-12T06:13:14.601Z,1385.68
2022-10-12T06:15:41.391Z,837.08
2022-10-12T06:18:08.181Z,1157.78
2022-10-12T06:20:37.510Z,1067.40
2022-10-12T06:23:07.982Z,1322.00
2022-10-12T06:25:34.681Z,1423.68
2022-10-12T06:28:01.873Z,1487.80
2022-10-12T06:30:29.068Z,542.10
2022-10-12T06:32:56.410Z,263.83
2022-10-12T06:35:23.802Z,196.75
2022-10-12T06:37:52.247Z,100.50
2022-10-12T06:40:20.325Z,31.73
2022-10-12T06:42:48.954Z,59.78
2022-10-12T06:45:16.668Z,18.70
2022-10-12T06:47:44.578Z,168.38
2022-10-12T06:50:12.355Z,156.45
2022-10-12T06:52:40.086Z,318.42
2022-10-12T06:55:07.818Z,323.48
2022-10-12T06:57:34.599Z,180.82
2022-10-12T07:00:01.320Z,90.45
2022-10-12T07:02:30.502Z,175.65
2022-10-12T07:04:57.240Z,188.52
2022-10-12T07:07:24.147Z,132.50
2022-10-12T07:09:52.702Z,111.35
2022-10-12T07:12:19.399Z,85.85
2022-10-12T07:14:46.142Z,71.43
2022-10-12T07:17:13.067Z,51.17
2022-10-12T07:19:39.837Z,434.45
2022-10-12T07:22:06.546Z,171.80
2022-10-12T07:24:36.488Z,402.20
2022-10-12T07:27:09.876Z,1096.28
2022-10-12T07:29:38.314Z,399.67
2022-10-12T07:32:06.047Z,258.80
2022-10-12T07:34:32.781Z,297.60
2022-10-12T07:37:02.358Z,134.32
2022-10-12T07:39:29.116Z,39.38
2022-10-12T07:41:56.247Z,50.75
2022-10-12T07:44:24.396Z,22.90
2022-10-12T07:46:51.334Z,101.50
2022-10-12T07:49:18.717Z,41.13
2022-10-12T07:51:46.463Z,37.28
2022-10-12T07:54:19.896Z,1999.90
2022-10-12T07:56:48.029Z,139.07
2022-10-12T07:59:15.134Z,57.20
2022-10-12T08:01:42.520Z,323.85
2022-10-12T08:04:10.258Z,50.40
2022-10-12T08:06:37.130Z,20.27
2022-10-12T08:09:04.741Z,15.75
2022-10-12T08:11:31.670Z,49.83
2022-10-12T08:13:58.408Z,30.80
2022-10-12T08:16:25.218Z,35.58
2022-10-12T08:18:52.129Z,114.88
2022-10-12T08:21:18.902Z,45.72
2022-10-12T08:23:46.381Z,434.13
2022-10-12T08:26:14.668Z,388.37
2022-10-12T08:31:11.068Z,210.35
2022-10-12T08:33:37.892Z,433.65
2022-10-12T08:36:06.715Z,184.52
2022-10-12T08:38:34.532Z,285.23
2022-10-12T08:41:20.358Z,195.50
2022-10-12T08:44:22.697Z,518.22
2022-10-12T08:46:54.774Z,90.60
2022-10-12T08:49:25.020Z,165.27
2022-10-12T08:52:01.363Z,643.17
2022-10-12T08:54:34.692Z,477.65
2022-10-12T08:57:01.444Z,298.92
2022-10-12T08:59:30.498Z,1153.25
2022-10-12T09:02:23.488Z,1256.78
2022-10-12T09:04:58.992Z,259.08
2022-10-12T09:07:33.646Z,40.25
2022-10-12T09:10:34.080Z,62.78
2022-10-12T09:13:11.501Z,41.60
2022-10-12T09:15:56.806Z,63.42
2022-10-12T09:18:41.218Z,70.53
2022-10-12T09:21:18.001Z,141.50
2022-10-12T09:23:45.218Z,56.35
2022-10-12T09:26:21.602Z,53.63
2022-10-12T09:28:54.214Z,27.98
2022-10-12T09:31:36.085Z,22.98
2022-10-12T09:34:07.056Z,14.52
2022-10-12T09:36:40.992Z,36.25
2022-10-12T09:39:41.069Z,79.60
2022-10-12T09:42:10.322Z,344.77
2022-10-12T09:44:47.941Z,520.38
2022-10-12T09:47:28.958Z,50.70
2022-10-12T09:49:58.708Z,288.35
2022-10-12T09:52:30.097Z,525.20
2022-10-12T09:55:05.230Z,123.30
2022-10-12T09:57:42.220Z,138.05
2022-10-12T10:00:27.264Z,26.88
2022-10-12T10:02:55.684Z,24.45
2022-10-12T10:05:32.568Z,19.52
2022-10-12T10:08:19.086Z,16.70
2022-10-12T10:11:01.423Z,13.18
2022-10-12T10:13:35.512Z,15.18
2022-10-12T10:16:10.844Z,14.65
2022-10-12T10:18:43.152Z,12.68
2022-10-12T10:21:13.175Z,13.65
2022-10-12T10:23:51.409Z,12.50
2022-10-12T10:28:49.577Z,37.97
2022-10-12T10:31:25.168Z,15.27
2022-10-12T10:34:13.193Z,30.95
2022-10-12T10:39:32.112Z,83.25
2022-10-12T10:42:19.769Z,102.88
2022-10-12T10:44:50.735Z,203.88
2022-10-12T10:47:18.269Z,34.95
2022-10-12T10:49:57.436Z,16.73
2022-10-12T10:52:36.175Z,69.90
2022-10-12T10:55:19.222Z,207.65
2022-10-12T10:58:11.361Z,107.05
2022-10-12T11:00:43.080Z,10.05
2022-10-12T11:03:37.623Z,217.75
2022-10-12T11:06:27.748Z,18.42
2022-10-12T11:09:03.887Z,28.20
2022-10-12T11:11:34.921Z,16.77
2022-10-12T11:14:14.427Z,35.85
2022-10-12T11:16:50.954Z,41.58
2022-10-12T11:19:36.794Z,15.52
2022-10-12T11:22:11.856Z,199.07
2022-10-12T11:24:55.594Z,302.98
2022-10-12T11:27:36.804Z,324.63
2022-10-12T11:30:15.805Z,253.70
2022-10-12T11:33:05.285Z,170.48
2022-10-12T11:35:36.222Z,62.10
2022-10-12T11:38:27.790Z,40.78
2022-10-12T11:41:13.896Z,22.98
2022-10-12T11:44:12.331Z,39.38
2022-10-12T11:46:48.812Z,34.75
2022-10-12T11:49:24.374Z,17.05
2022-10-12T11:51:52.565Z,19.67
2022-10-12T11:54:25.038Z,19.77
2022-10-12T11:56:54.840Z,22.38
2022-10-12T11:59:24.301Z,22.75
2022-10-12T12:02:15.094Z,29.40
2022-10-12T12:04:45.234Z,34.28
2022-10-12T12:07:50.088Z,98.60
2022-10-12T12:10:31.176Z,50.42
2022-10-12T12:13:18.088Z,23.52
2022-10-12T12:15:47.531Z,54.90
2022-10-12T12:18:21.488Z,61.38
2022-10-12T12:20:48.137Z,469.63
2022-10-12T12:23:35.087Z,36.05
2022-10-12T12:26:11.803Z,246.45
2022-10-12T12:28:48.356Z,660.47
2022-10-12T12:31:28.144Z,536.40
2022-10-12T12:34:13.753Z,448.65
2022-10-12T12:36:46.161Z,465.13
2022-10-12T12:39:24.045Z,398.35
2022-10-12T12:42:02.008Z,271.10
2022-10-12T12:44:38.015Z,380.98
2022-10-12T12:47:20.569Z,451.67
2022-10-12T12:50:05.443Z,352.02
2022-10-12T12:52:35.356Z,350.13
2022-10-12T12:55:10.942Z,169.23
2022-10-12T12:58:06.430Z,231.95
2022-10-12T13:00:59.444Z,150.30
2022-10-12T13:03:46.465Z,161.15
2022-10-12T13:06:50.408Z,218.23
2022-10-12T13:09:23.104Z,91.03
2022-10-12T13:11:49.810Z,89.30
2022-10-12T13:14:59.253Z,183.27
2022-10-12T13:18:00.413Z,102.18
2022-10-12T13:20:32.206Z,108.50
2022-10-12T13:23:03.366Z,55.08
2022-10-12T13:25:35.987Z,77.32
2022-10-12T13:28:06.443Z,61.38
2022-10-12T13:30:40.874Z,655.38
2022-10-12T13:33:10.521Z,561.70
2022-10-12T13:35:46.045Z,316.98
2022-10-12T13:38:15.438Z,741.53
2022-10-12T13:40:48.469Z,771.65
2022-10-12T13:43:43.641Z,760.78
2022-10-12T13:46:42.226Z,697.78
2022-10-12T13:49:34.311Z,618.53
2022-10-12T13:52:11.748Z,454.65
2022-10-12T13:54:39.992Z,438.90
2022-10-12T13:59:49.947Z,265.75
2022-10-12T14:02:21.972Z,278.63
2022-10-12T14:04:49.008Z,256.33
2022-10-12T14:07:40.590Z,215.25
2022-10-12T14:10:17.804Z,210.60
2022-10-12T14:12:50.882Z,245.07
2022-10-12T14:15:18.777Z,209.20
2022-10-12T14:17:47.384Z,189.57
2022-10-12T14:20:31.193Z,180.40
2022-10-12T14:22:59.915Z,190.70
2022-10-12T14:25:29.258Z,164.57
2022-10-12T14:27:59.195Z,195.10
2022-10-12T14:30:41.634Z,160.55
2022-10-12T14:33:10.703Z,156.10
2022-10-12T14:35:42.089Z,162.25
2022-10-12T14:38:45.406Z,179.93
2022-10-12T14:41:42.773Z,134.68
2022-10-12T14:44:10.780Z,148.68
2022-10-12T14:49:17.576Z,148.95
2022-10-12T14:51:44.924Z,133.23
2022-10-12T14:54:12.392Z,131.20
2022-10-12T14:56:39.964Z,132.10
2022-10-12T14:59:06.779Z,144.35
2022-10-12T15:01:36.667Z,102.43
2022-10-12T15:04:05.933Z,118.88
2022-10-12T15:06:35.541Z,112.18
2022-10-12T15:09:04.755Z,117.95
2022-10-12T15:11:32.006Z,105.75
2022-10-12T15:13:58.693Z,84.18
2022-10-12T15:16:28.254Z,115.80
2022-10-12T15:18:55.128Z,97.18
2022-10-12T15:21:21.874Z,109.10
2022-10-12T15:23:48.661Z,118.80
2022-10-12T15:26:17.777Z,103.57
2022-10-12T15:28:44.768Z,109.25
2022-10-12T15:31:18.223Z,108.00
2022-10-12T15:33:45.746Z,99.20
2022-10-12T15:36:12.511Z,88.45
2022-10-12T15:38:39.277Z,84.75
2022-10-12T15:41:06.647Z,92.78
2022-10-12T15:43:35.795Z,95.90
2022-10-12T15:46:05.144Z,79.60
2022-10-12T15:48:31.861Z,93.35
2022-10-12T15:50:58.616Z,94.28
2022-10-12T15:53:26.319Z,87.93
2022-10-12T15:55:55.253Z,77.60
2022-10-12T15:58:22.720Z,87.53
2022-10-12T16:00:49.785Z,88.47
2022-10-12T16:03:24.561Z,83.22
2022-10-12T16:05:53.009Z,77.13
2022-10-12T16:08:19.722Z,76.50
2022-10-12T16:10:47.781Z,72.78
2022-10-12T16:13:15.927Z,72.75
2022-10-12T16:15:43.528Z,72.55
2022-10-12T16:18:15.540Z,66.03
2022-10-12T16:20:42.979Z,75.53
2022-10-12T16:23:14.937Z,62.57
2022-10-12T16:25:41.719Z,67.13
2022-10-12T16:28:10.279Z,57.58
2022-10-12T16:30:37.508Z,66.38
2022-10-12T16:33:04.293Z,60.72
2022-10-12T16:35:31.023Z,71.10
2022-10-12T16:37:57.967Z,54.30
2022-10-12T16:40:24.772Z,56.17
2022-10-12T16:42:54.621Z,54.67
2022-10-12T16:45:22.715Z,54.67
2022-10-12T16:47:53.900Z,59.85
2022-10-12T16:50:24.988Z,52.00
2022-10-12T16:52:52.623Z,55.75
2022-10-12T16:55:20.005Z,56.50
2022-10-12T16:57:46.994Z,54.27
2022-10-12T17:00:17.089Z,50.97
2022-10-12T17:02:43.814Z,54.78
2022-10-12T17:05:10.581Z,55.65
2022-10-12T17:07:37.324Z,45.92
2022-10-12T17:10:04.898Z,50.10
2022-10-12T17:12:31.649Z,53.40
2022-10-12T17:14:58.458Z,50.25
2022-10-12T17:17:25.235Z,53.05
2022-10-12T17:19:51.986Z,39.33
2022-10-12T17:22:21.152Z,42.10
2022-10-12T17:24:48.301Z,39.55
2022-10-12T17:27:16.299Z,38.55
2022-10-12T17:29:43.311Z,43.33
2022-10-12T17:32:11.076Z,42.50
2022-10-12T17:34:41.237Z,41.25
2022-10-12T17:37:11.297Z,47.10
2022-10-12T17:39:41.659Z,46.65
2022-10-12T17:42:08.939Z,35.92
2022-10-12T17:44:35.705Z,42.20
2022-10-12T17:47:02.663Z,39.22
2022-10-12T17:49:29.854Z,34.08
2022-10-12T17:51:56.722Z,38.28
2022-10-12T17:54:26.335Z,40.63
2022-10-12T17:56:57.180Z,41.65
2022-10-12T17:59:24.764Z,41.67
2022-10-12T18:01:52.397Z,35.85
2022-10-12T18:04:19.580Z,39.15
2022-10-12T18:06:46.793Z,36.70
2022-10-12T18:09:14.455Z,38.40
2022-10-12T18:11:42.166Z,36.45
2022-10-12T18:14:10.929Z,37.10
2022-10-12T18:16:38.549Z,34.45
2022-10-12T18:19:09.553Z,34.15
2022-10-12T18:21:36.913Z,33.28
2022-10-12T18:24:07.324Z,29.47
2022-10-12T18:26:35.553Z,31.65
2022-10-12T18:29:02.353Z,29.17
2022-10-12T18:31:30.787Z,30.55
2022-10-12T18:33:58.497Z,36.75
2022-10-12T18:36:27.267Z,36.65
2022-10-12T18:38:55.106Z,31.15
2022-10-12T18:41:23.464Z,28.90
2022-10-12T18:46:22.521Z,34.25
2022-10-12T18:48:49.972Z,26.40
2022-10-12T18:51:24.343Z,28.67
2022-10-12T18:53:51.166Z,30.98
2022-10-12T18:56:19.641Z,34.78
2022-10-12T18:58:46.643Z,27.27
2022-10-12T19:01:19.686Z,27.10
2022-10-12T19:03:47.439Z,28.10
2022-10-12T19:06:17.016Z,28.08
2022-10-12T19:08:45.096Z,29.67
2022-10-12T19:11:13.489Z,30.73
2022-10-12T19:13:41.038Z,35.28
2022-10-12T19:16:10.952Z,28.33
2022-10-12T19:18:39.298Z,29.55
2022-10-12T19:23:36.726Z,23.85
2022-10-12T19:26:09.677Z,28.85
2022-10-12T19:28:36.638Z,25.98
2022-10-12T19:31:15.768Z,28.58
2022-10-12T19:33:42.924Z,25.65
2022-10-12T19:36:11.588Z,24.48
2022-10-12T19:38:41.217Z,23.40
2022-10-12T19:41:08.107Z,24.83
2022-10-12T19:43:38.267Z,24.00
2022-10-12T19:46:10.342Z,23.40
2022-10-12T19:48:39.021Z,25.67
2022-10-12T19:51:08.820Z,22.13
2022-10-12T19:53:35.581Z,22.35
2022-10-12T19:56:04.854Z,23.65
2022-10-12T19:58:32.191Z,25.38
2022-10-12T20:01:04.027Z,20.50
2022-10-12T20:03:31.555Z,19.42
2022-10-12T20:05:58.693Z,17.88
2022-10-12T20:08:25.972Z,22.15
2022-10-12T20:10:55.298Z,19.60
2022-10-12T20:13:22.054Z,24.23
2022-10-12T20:15:52.966Z,20.48
2022-10-12T20:18:20.368Z,20.67
2022-10-12T20:20:47.201Z,23.77
2022-10-12T20:23:14.537Z,22.83
2022-10-12T20:25:46.125Z,22.37
2022-10-12T20:28:13.526Z,24.38
2022-10-12T20:30:43.199Z,24.53
2022-10-12T20:33:10.299Z,19.73
2022-10-12T20:35:37.106Z,20.35
2022-10-12T20:38:04.541Z,23.15
2022-10-12T20:40:31.266Z,19.37
2022-10-12T20:42:58.059Z,18.88
2022-10-12T20:45:24.759Z,26.30
2022-10-12T20:47:51.525Z,18.73
2022-10-12T20:50:18.536Z,19.00
2022-10-12T20:52:46.743Z,16.42
2022-10-12T20:55:13.515Z,18.98
2022-10-12T20:57:40.236Z,18.05
2022-10-12T21:00:07.436Z,19.85
2022-10-12T21:02:34.364Z,21.65
2022-10-12T21:05:07.422Z,19.55
2022-10-12T21:07:35.077Z,18.95
2022-10-12T21:10:02.598Z,19.92
2022-10-12T21:12:29.751Z,22.08
2022-10-12T21:14:56.978Z,19.60
2022-10-12T21:17:23.675Z,21.35
2022-10-12T21:19:51.734Z,17.05
2022-10-12T21:22:18.819Z,15.68
2022-10-12T21:24:46.351Z,20.05
2022-10-12T21:27:14.673Z,16.60
2022-10-12T21:29:41.402Z,17.08
2022-10-12T21:32:08.172Z,16.08
2022-10-12T21:34:34.942Z,16.02
2022-10-12T21:37:03.860Z,18.00
2022-10-12T21:39:30.595Z,19.73
2022-10-12T21:41:57.305Z,16.25
2022-10-12T21:44:24.051Z,20.27
2022-10-12T21:46:50.845Z,15.77
2022-10-12T21:49:17.576Z,18.90
2022-10-12T21:51:44.318Z,16.30
2022-10-12T21:54:11.228Z,20.40
2022-10-12T21:56:38.232Z,21.20
2022-10-12T21:59:06.528Z,17.70
2022-10-12T22:04:12.555Z,19.85
2022-10-12T22:06:39.280Z,15.80
2022-10-12T22:09:09.264Z,17.50
2022-10-12T22:11:37.293Z,15.38
2022-10-12T22:14:08.294Z,21.13
2022-10-12T22:16:36.687Z,17.27
2022-10-12T22:19:05.764Z,15.85
2022-10-12T22:21:33.491Z,13.88
2022-10-12T22:24:00.603Z,16.90
2022-10-12T22:26:27.987Z,15.23
2022-10-12T22:28:55.439Z,14.87
2022-10-12T22:31:24.460Z,15.77
2022-10-12T22:33:52.369Z,16.45
2022-10-12T22:36:19.220Z,16.20
2022-10-12T22:38:46.016Z,17.33
2022-10-12T22:41:21.192Z,13.63
2022-10-12T22:43:49.332Z,16.50
2022-10-12T22:46:17.202Z,14.32
2022-10-12T22:48:44.320Z,17.35
2022-10-12T22:51:15.187Z,14.85
2022-10-12T22:53:41.935Z,14.18
2022-10-12T22:56:13.377Z,16.48
2022-10-12T22:58:40.116Z,17.40
2022-10-12T23:01:10.059Z,17.20
2022-10-12T23:03:37.615Z,13.85
2022-10-12T23:06:06.600Z,15.32
2022-10-12T23:08:33.516Z,14.40
2022-10-12T23:11:11.845Z,15.15
2022-10-12T23:13:39.400Z,16.17
2022-10-12T23:16:12.569Z,18.88
2022-10-12T23:18:39.831Z,16.23
2022-10-12T23:21:09.000Z,14.32
2022-10-12T23:23:37.212Z,12.73
2022-10-12T23:30:59.287Z,16.27
2022-10-12T23:33:26.088Z,13.73
2022-10-12T23:36:01.377Z,14.63
2022-10-12T23:38:32.961Z,13.85
2022-10-12T23:41:00.091Z,14.82
2022-10-12T23:43:27.124Z,16.75
2022-10-12T23:45:54.777Z,13.90
2022-10-12T23:48:21.966Z,14.05
2022-10-12T23:50:49.229Z,13.07
2022-10-12T23:53:15.976Z,14.45
2022-10-12T23:55:42.736Z,13.73
2022-10-12T23:58:09.651Z,13.95
